Time;durP1;ratioP1;P1;durP2;ratioP2;P2;SDS_P1;SDS_P2;PMS_P1;PMS_P2;Temp;Humidity;BMP_temperature;BMP_pressure;BME280_temperature;BME280_humidity;BME280_pressure;Samples;Min_cycle;Max_cycle;Signal;HPM_P1;HPM_P2
2023/07/17 17:40:57;;;;;;;9.77;2.87;;;;;;;-143.84;65.89;45007.19;6011347;23;20508;-56
2023/07/17 17:43:24;;;;;;;8.77;3.00;;;;;;;-143.84;66.16;45041.44;4968097;28;20469;-55
2023/07/17 17:45:51;;;;;;;14.23;3.43;;;;;;;-143.84;66.53;45014.78;4970725;28;20454;-55
2023/07/17 17:48:19;;;;;;;5.07;2.87;;;;;;;-143.84;67.53;45024.31;4970505;28;20438;-55
2023/07/17 17:50:46;;;;;;;13.60;2.60;;;;;;;-143.84;68.10;45045.25;4970098;28;20457;-55
2023/07/17 17:53:14;;;;;;;6.73;2.70;;;;;;;-143.84;68.68;45037.66;4970045;28;20869;-55
2023/07/17 17:55:41;;;;;;;4.50;2.77;;;;;;;-143.84;68.46;45033.84;4970162;28;20874;-55
2023/07/17 17:58:10;;;;;;;6.03;2.90;;;;;;;-143.84;69.00;45064.31;4969921;28;20520;-55
2023/07/17 18:00:37;;;;;;;3.17;2.87;;;;;;;-143.84;69.39;45022.41;4970187;28;20931;-55
2023/07/17 18:03:04;;;;;;;7.87;3.53;;;;;;;-143.84;69.64;45010.97;4969819;28;20905;-55
2023/07/17 18:05:31;;;;;;;5.83;3.13;;;;;;;-143.84;70.97;45007.19;4969957;28;20438;-55
2023/07/17 18:07:59;;;;;;;4.03;3.00;;;;;;;-143.84;71.71;45026.22;4969598;28;20441;-55
2023/07/17 18:10:26;;;;;;;3.47;2.93;;;;;;;-143.84;72.73;45037.66;4969588;28;20480;-55
2023/07/17 18:12:54;;;;;;;14.33;3.30;;;;;;;-143.84;73.79;45037.66;4969830;28;20433;-55
2023/07/17 18:15:22;;;;;;;3.83;3.20;;;;;;;-143.84;74.59;45058.59;4970136;28;20444;-55
2023/07/17 18:17:50;;;;;;;5.53;3.57;;;;;;;-143.84;75.77;45039.53;4969571;28;20453;-55
2023/07/17 18:20:17;;;;;;;7.90;3.23;;;;;;;-143.84;76.97;45035.75;4969533;28;20443;-55
2023/07/17 18:22:44;;;;;;;6.60;3.60;;;;;;;-143.84;79.04;45031.94;4969782;28;20590;-55
2023/07/17 18:25:12;;;;;;;10.73;3.23;;;;;;;-143.84;78.65;45045.25;4969856;28;20511;-55
2023/07/17 18:27:39;;;;;;;6.93;3.30;;;;;;;-143.84;79.91;45028.13;4969798;28;20503;-55
2023/07/17 18:30:07;;;;;;;6.03;3.30;;;;;;;-143.84;80.31;45052.88;4973309;28;20517;-55
2023/07/17 18:32:36;;;;;;;10.47;3.50;;;;;;;-143.84;81.16;45041.44;4973480;28;20451;-55
2023/07/17 18:35:04;;;;;;;11.53;3.70;;;;;;;-143.84;81.33;45030.03;4973341;28;20461;-54
2023/07/17 18:37:31;;;;;;;4.90;3.33;;;;;;;-143.84;82.16;45022.41;4972997;28;20459;-55
2023/07/17 18:39:58;;;;;;;5.93;3.40;;;;;;;-143.84;82.35;45054.78;4973787;28;20487;-55
2023/07/17 18:42:26;;;;;;;10.50;3.60;;;;;;;-143.84;82.29;45024.31;4973360;28;20515;-54
2023/07/17 18:44:53;;;;;;;7.03;4.00;;;;;;;-143.84;82.83;45054.78;4974808;28;20465;-54
2023/07/17 18:47:20;;;;;;;15.60;3.93;;;;;;;-143.84;83.07;45047.16;4975242;28;20591;-55
2023/07/17 18:49:49;;;;;;;5.60;4.27;;;;;;;-143.84;83.69;45045.25;4974844;28;20797;-54
2023/07/17 18:52:16;;;;;;;12.07;4.27;;;;;;;-143.84;83.95;45041.44;4975001;28;20588;-55
2023/07/17 18:54:43;;;;;;;3.87;3.37;;;;;;;-143.84;83.84;45049.06;4974855;28;20512;-55
2023/07/17 18:57:10;;;;;;;7.00;4.30;;;;;;;-143.84;84.29;45035.75;4974982;28;20522;-55
2023/07/17 18:59:38;;;;;;;4.23;3.93;;;;;;;-143.84;84.26;45056.69;4972754;28;20461;-55
2023/07/17 19:02:06;;;;;;;9.30;4.07;;;;;;;-143.84;84.32;45050.97;4973879;28;20488;-55
2023/07/17 19:04:34;;;;;;;4.83;3.00;;;;;;;-143.84;84.69;45052.88;4973427;28;21234;-55
2023/07/17 19:07:02;;;;;;;12.03;4.97;;;;;;;-143.84;84.43;45035.75;4974563;28;20460;-55
2023/07/17 19:09:29;;;;;;;4.93;4.20;;;;;;;-143.84;84.88;45050.97;4973148;28;20452;-55
2023/07/17 19:11:57;;;;;;;3.80;3.43;;;;;;;-143.84;85.17;45043.34;4974506;28;20457;-55
2023/07/17 19:14:27;;;;;;;8.53;3.83;;;;;;;-143.84;85.31;45030.03;4974665;28;20443;-55
2023/07/17 19:16:57;;;;;;;5.30;3.23;;;;;;;-143.84;85.63;45033.84;4974355;28;20531;-55
2023/07/17 19:19:24;;;;;;;9.50;3.60;;;;;;;-143.84;85.68;45035.75;4974245;28;20462;-55
2023/07/17 19:21:51;;;;;;;3.53;3.30;;;;;;;-143.84;85.61;45054.78;4974423;28;20492;-55
2023/07/17 19:24:20;;;;;;;3.80;3.50;;;;;;;-143.84;85.82;45045.25;4974213;28;20455;-55
2023/07/17 19:26:47;;;;;;;4.77;3.83;;;;;;;-143.84;85.95;45028.13;4974473;28;20480;-55
2023/07/17 19:29:14;;;;;;;5.40;3.57;;;;;;;-143.84;85.81;45045.25;4974544;28;20446;-55
2023/07/17 19:31:42;;;;;;;6.83;4.23;;;;;;;-143.84;85.97;45014.78;4974523;28;20474;-55
2023/07/17 19:34:09;;;;;;;7.53;3.60;;;;;;;-143.84;86.82;45043.34;4974329;28;20448;-54
2023/07/17 19:36:37;;;;;;;7.03;4.63;;;;;;;-143.84;86.65;45043.34;4974226;28;20448;-55
2023/07/17 19:39:05;;;;;;;4.73;4.33;;;;;;;-143.84;86.59;45047.16;4973999;28;20580;-55
2023/07/17 19:41:33;;;;;;;3.70;3.17;;;;;;;-143.84;87.08;45033.84;4973590;28;20499;-55
2023/07/17 19:44:00;;;;;;;4.30;4.00;;;;;;;-143.84;87.21;45060.50;4972144;28;20453;-55
2023/07/17 19:46:29;;;;;;;4.30;3.67;;;;;;;-143.84;87.43;45014.78;4972559;28;20869;-55
2023/07/17 19:48:56;;;;;;;4.40;3.77;;;;;;;-143.84;87.93;45047.16;4972595;28;20460;-55
2023/07/17 19:51:23;;;;;;;3.73;3.30;;;;;;;-143.84;88.05;45030.03;4972437;28;21318;-55
2023/07/17 19:53:51;;;;;;;6.10;3.90;;;;;;;-143.84;88.03;45054.78;4972316;28;21243;-55
2023/07/17 19:56:18;;;;;;;8.77;4.73;;;;;;;-143.84;87.76;45035.75;4971675;28;21383;-55
2023/07/17 19:58:47;;;;;;;5.80;3.63;;;;;;;-143.84;87.76;45037.66;4971641;28;20447;-55
2023/07/17 20:01:14;;;;;;;4.20;3.77;;;;;;;-143.84;87.40;45054.78;4972016;28;20856;-55
2023/07/17 20:03:41;;;;;;;6.93;3.43;;;;;;;-143.84;87.26;45041.44;4971898;28;20562;-55
2023/07/17 20:06:10;;;;;;;4.50;3.77;;;;;;;-143.84;87.20;45049.06;4971420;28;20458;-55
2023/07/17 20:08:37;;;;;;;4.67;3.23;;;;;;;-143.84;87.38;45045.25;4971657;28;20457;-55
2023/07/17 20:11:04;;;;;;;7.37;3.60;;;;;;;-143.84;87.31;45047.16;4971946;28;20449;-55
2023/07/17 20:13:31;;;;;;;9.30;4.30;;;;;;;-143.84;87.13;45054.78;4972005;28;20515;-55
2023/07/17 20:16:00;;;;;;;5.53;3.73;;;;;;;-143.84;87.05;45049.06;4971866;28;20480;-55
2023/07/17 20:18:27;;;;;;;8.47;3.60;;;;;;;-143.84;87.23;45018.59;4971811;28;20444;-55
2023/07/17 20:20:55;;;;;;;5.73;3.10;;;;;;;-143.84;87.23;45033.84;4972141;28;20444;-55
2023/07/17 20:23:23;;;;;;;7.23;3.10;;;;;;;-143.84;87.40;45031.94;4971477;28;20489;-55
2023/07/17 20:25:50;;;;;;;4.90;3.80;;;;;;;-143.84;87.20;45041.44;4969681;28;20830;-55
2023/07/17 20:28:17;;;;;;;15.53;4.00;;;;;;;-143.84;86.85;45049.06;4971648;28;20460;-55
2023/07/17 20:30:44;;;;;;;6.17;3.30;;;;;;;-143.84;86.74;45060.50;4971747;28;20542;-55
2023/07/17 20:33:13;;;;;;;5.37;3.33;;;;;;;-143.84;86.95;45043.34;4971809;28;20528;-55
2023/07/17 20:35:40;;;;;;;5.10;3.90;;;;;;;-143.84;86.99;45064.31;4971583;28;20449;-55
2023/07/17 20:38:07;;;;;;;4.67;3.77;;;;;;;-143.84;87.30;45068.13;4971471;28;20510;-55
2023/07/17 20:40:35;;;;;;;3.93;3.30;;;;;;;-143.84;87.36;45068.13;4971398;28;20447;-55
2023/07/17 20:43:02;;;;;;;8.97;3.87;;;;;;;-143.84;87.16;45047.16;4971236;28;20504;-55
2023/07/17 20:45:33;;;;;;;6.80;3.67;;;;;;;-143.84;86.85;45054.78;4971096;28;20525;-55
2023/07/17 20:48:00;;;;;;;4.20;3.30;;;;;;;-143.84;86.86;45045.25;4971410;28;20457;-55
2023/07/17 20:50:29;;;;;;;5.43;3.60;;;;;;;-143.84;86.76;45037.66;4970348;28;20535;-55
2023/07/17 20:52:57;;;;;;;4.60;3.80;;;;;;;-143.84;86.93;45033.84;4970999;28;20440;-55
2023/07/17 20:55:25;;;;;;;10.80;3.30;;;;;;;-143.84;86.95;45052.88;4971322;28;20869;-55
2023/07/17 20:57:52;;;;;;;8.03;4.00;;;;;;;-143.84;87.07;45026.22;4971258;28;20704;-55
2023/07/17 21:00:19;;;;;;;8.00;3.87;;;;;;;-143.84;87.02;45052.88;4971090;28;20507;-55
2023/07/17 21:02:46;;;;;;;4.27;3.87;;;;;;;-143.84;86.83;45024.31;4971086;28;20499;-55
2023/07/17 21:05:13;;;;;;;9.23;4.23;;;;;;;-143.84;87.42;45054.78;4970966;28;20445;-55
2023/07/17 21:07:42;;;;;;;7.33;4.93;;;;;;;-143.84;88.22;45050.97;4970895;28;20510;-55
2023/07/17 21:10:10;;;;;;;9.40;4.00;;;;;;;-143.84;88.64;45037.66;4971424;28;20459;-55
2023/07/17 21:12:37;;;;;;;5.30;4.00;;;;;;;-143.84;88.61;45039.53;4970835;28;20455;-55
2023/07/17 21:15:05;;;;;;;9.20;4.60;;;;;;;-143.84;88.64;45052.88;4970831;28;20456;-55
2023/07/17 21:17:32;;;;;;;7.10;4.37;;;;;;;-143.84;89.06;45054.78;4970792;28;20445;-55
2023/07/17 21:19:59;;;;;;;5.60;4.40;;;;;;;-143.84;89.29;45075.72;4970782;28;20441;-55
2023/07/17 21:22:26;;;;;;;7.70;4.40;;;;;;;-143.84;89.30;45064.31;4970487;28;20484;-55
2023/07/17 21:24:54;;;;;;;12.80;4.03;;;;;;;-143.84;89.61;45043.34;4970742;28;20453;-55
2023/07/17 21:27:22;;;;;;;5.87;3.97;;;;;;;-143.84;89.54;45033.84;4970722;28;20457;-55
2023/07/17 21:29:49;;;;;;;3.90;3.60;;;;;;;-143.84;89.72;45050.97;4970708;28;20455;-55
2023/07/17 21:32:16;;;;;;;10.83;5.27;;;;;;;-143.84;89.84;45083.34;4969647;28;20886;-55
2023/07/17 21:34:43;;;;;;;5.83;4.57;;;;;;;-143.84;90.09;45037.66;4970319;28;20450;-55
2023/07/17 21:37:11;;;;;;;11.40;4.50;;;;;;;-143.84;90.13;45060.50;4969830;28;20459;-55
2023/07/17 21:39:38;;;;;;;12.73;4.40;;;;;;;-143.84;90.55;45035.75;4970732;28;20445;-55
2023/07/17 21:42:07;;;;;;;6.83;4.40;;;;;;;-143.84;90.61;45056.69;4970187;28;20492;-55
2023/07/17 21:44:34;;;;;;;7.70;4.50;;;;;;;-143.84;90.53;45007.19;4970525;28;20483;-55
2023/07/17 21:47:01;;;;;;;4.33;4.03;;;;;;;-143.84;90.63;45039.53;4970329;28;20511;-55
2023/07/17 21:49:28;;;;;;;4.57;4.17;;;;;;;-143.84;90.46;45041.44;4970372;28;20449;-55
2023/07/17 21:51:56;;;;;;;13.87;3.90;;;;;;;-143.84;90.56;45047.16;4970101;28;20452;-55
2023/07/17 21:54:23;;;;;;;6.50;3.77;;;;;;;-143.84;90.66;45052.88;4970212;28;21134;-55
2023/07/17 21:56:50;;;;;;;14.43;4.20;;;;;;;-143.84;90.81;45056.69;4970207;28;20950;-55
2023/07/17 21:59:18;;;;;;;14.20;4.37;;;;;;;-143.84;90.69;45045.25;4970342;28;20443;-55
2023/07/17 22:01:45;;;;;;;6.90;4.13;;;;;;;-143.84;90.33;45047.16;4970148;28;20515;-55
2023/07/17 22:04:12;;;;;;;15.93;4.20;;;;;;;-143.84;90.35;45062.41;4970278;28;20587;-55
2023/07/17 22:06:40;;;;;;;8.30;4.13;;;;;;;-143.84;90.74;45058.59;4970016;28;20448;-55
2023/07/17 22:09:07;;;;;;;12.53;4.60;;;;;;;-143.84;90.72;45050.97;4970144;28;20449;-55
2023/07/17 22:11:34;;;;;;;18.30;4.37;;;;;;;-143.84;91.25;45079.53;4970127;28;20440;-55
2023/07/17 22:14:02;;;;;;;10.20;5.23;;;;;;;-143.84;91.20;45045.25;4970112;28;20523;-55
2023/07/17 22:16:30;;;;;;;27.37;4.23;;;;;;;-143.84;91.16;45068.13;4969976;28;20451;-55
2023/07/17 22:18:58;;;;;;;8.20;4.50;;;;;;;-143.84;90.79;45064.31;4969928;28;20448;-55
2023/07/17 22:21:25;;;;;;;9.33;3.63;;;;;;;-143.84;91.15;45049.06;4969863;28;20445;-55
2023/07/17 22:23:52;;;;;;;7.10;4.60;;;;;;;-143.84;91.38;45022.41;4969900;28;20495;-55
2023/07/17 22:26:19;;;;;;;13.43;4.60;;;;;;;-143.84;91.36;45079.53;4969900;28;20503;-55
2023/07/17 22:28:46;;;;;;;15.13;6.07;;;;;;;-143.84;91.44;45052.88;4969965;28;20452;-55
2023/07/17 22:31:13;;;;;;;5.97;4.30;;;;;;;-143.84;91.25;45049.06;4970128;28;20498;-55
2023/07/17 22:33:42;;;;;;;6.80;4.60;;;;;;;-143.84;91.19;45047.16;4970140;28;20439;-55
2023/07/17 22:36:09;;;;;;;9.73;4.77;;;;;;;-143.84;91.18;45056.69;4969429;28;21063;-55
2023/07/17 22:38:36;;;;;;;10.83;4.20;;;;;;;-143.84;91.33;45045.25;4968687;28;20532;-55
2023/07/17 22:41:03;;;;;;;5.17;4.43;;;;;;;-143.84;90.91;45077.63;4969510;28;20709;-56
2023/07/17 22:43:30;;;;;;;6.13;4.63;;;;;;;-143.84;90.75;45039.53;4969629;28;20550;-55
2023/07/17 22:45:57;;;;;;;13.20;4.83;;;;;;;-143.84;90.49;45068.13;4970006;28;20447;-55
2023/07/17 22:48:27;;;;;;;4.67;4.20;;;;;;;-143.84;90.69;45054.78;4969013;28;20457;-55
2023/07/17 22:50:56;;;;;;;6.70;4.43;;;;;;;-143.84;90.55;45071.91;4969916;28;20977;-55
2023/07/17 22:53:23;;;;;;;5.40;4.90;;;;;;;-143.84;90.51;45089.06;4969924;28;20845;-55
2023/07/17 22:55:52;;;;;;;4.30;4.00;;;;;;;-143.84;90.47;45052.88;4969700;28;20454;-55
2023/07/17 22:58:19;;;;;;;7.03;4.40;;;;;;;-143.84;90.63;45089.06;4969647;28;20883;-55
2023/07/17 23:00:46;;;;;;;5.23;4.57;;;;;;;-143.84;90.49;45068.13;4969724;28;21010;-55
2023/07/17 23:03:13;;;;;;;17.23;4.00;;;;;;;-143.84;90.46;45073.81;4969683;28;20489;-55
2023/07/17 23:05:41;;;;;;;8.17;4.30;;;;;;;-143.84;89.61;45033.84;4969835;28;20440;-55
2023/07/17 23:08:09;;;;;;;5.33;4.67;;;;;;;-143.84;89.27;45070.00;4969162;28;20468;-55
2023/07/17 23:10:37;;;;;;;9.40;4.87;;;;;;;-143.84;89.57;45064.31;4969634;28;20449;-55
2023/07/17 23:13:04;;;;;;;9.40;5.20;;;;;;;-143.84;90.14;45070.00;4969585;28;20590;-55
2023/07/17 23:15:32;;;;;;;11.73;4.33;;;;;;;-143.84;90.03;45045.25;4972669;28;20446;-55
2023/07/17 23:17:59;;;;;;;6.80;4.30;;;;;;;-143.84;90.29;45068.13;4973005;28;20850;-55
2023/07/17 23:20:26;;;;;;;11.80;5.10;;;;;;;-143.84;90.56;45043.34;4972941;28;20507;-55
2023/07/17 23:22:53;;;;;;;4.40;4.00;;;;;;;-143.84;90.93;45058.59;4972887;28;20545;-55
2023/07/17 23:25:21;;;;;;;7.80;4.70;;;;;;;-143.84;91.04;45054.78;4973025;28;20953;-55
2023/07/17 23:27:49;;;;;;;8.80;3.83;;;;;;;-143.84;91.01;45056.69;4973012;28;20450;-55
2023/07/17 23:30:17;;;;;;;4.53;4.10;;;;;;;-143.84;90.92;45068.13;4972642;28;20445;-55
2023/07/17 23:32:44;;;;;;;5.23;4.20;;;;;;;-143.84;90.62;45068.13;4972750;28;20445;-55
2023/07/17 23:35:11;;;;;;;5.60;4.10;;;;;;;-143.84;90.18;45056.69;4972596;28;20540;-55
2023/07/17 23:37:38;;;;;;;5.13;4.20;;;;;;;-143.84;89.75;45064.31;4972661;28;20449;-55
2023/07/17 23:40:08;;;;;;;7.60;4.27;;;;;;;-143.84;89.44;45068.13;4972596;28;20511;-55
2023/07/17 23:42:39;;;;;;;3.73;3.43;;;;;;;-143.84;89.24;45033.84;4971215;28;20862;-55
2023/07/17 23:45:08;;;;;;;4.30;3.90;;;;;;;-143.84;89.08;45062.41;4972438;28;20457;-55
2023/07/17 23:47:37;;;;;;;8.60;4.27;;;;;;;-143.84;88.91;45071.91;4971526;28;20467;-55
2023/07/17 23:50:05;;;;;;;8.43;4.60;;;;;;;-143.84;89.05;45043.34;4972394;28;20535;-55
2023/07/17 23:52:33;;;;;;;6.50;4.60;;;;;;;-143.84;89.03;45068.13;4972634;28;20552;-55
2023/07/17 23:55:00;;;;;;;5.20;4.70;;;;;;;-143.84;89.48;45079.53;4972635;28;20440;-55
2023/07/17 23:57:28;;;;;;;5.87;4.57;;;;;;;-143.84;89.87;45050.97;4972567;28;20437;-55
2023/07/17 23:59:57;;;;;;;10.13;4.90;;;;;;;-143.84;90.17;45064.31;4972163;28;20484;-55
